Details From CYYC - Calgary Intl
To CYQF - Red Deer Regional
Flight Number -
Tags Generated
Created
Modified
Stats Distance 65 nm / 120 km
Max Altitude 0 ft / 0 m
Waypoints 2
Social Downloads 1
Likes 0
Share VATSIM

Download

Looking for another format? Having issues loading an existing format? Contact us
Advertisement - Login to hide

Notes

Generated

Route

CYYC CYQF

ID Type Via Altitude Latitude Longitude Leg Dist Tot Dist Heading (true) Name
O CYYC APT - 0 ft / 0 m 51.10417˚ -114.03028˚ - 0 nm - -
O CYQF APT - 0 ft / 0 m 52.18222˚ -113.90028˚ 64 nm 64 nm 4° / 4° -

Altitude Profile

Advertisement - Login to hide

CYYC

Details ICAO CYYC (YYC)
Name CALGARY INTL
Region Canada
Timezone America/Edmonton (UTC-6.0)
Stats Elevation 3,557 ft / 1,084 m (AMSL)
Location 51.113197° -114.020044°
Runways 3
Magnetic Variation 14.027° E

METAR

CYYC 220600Z 04003KT 020V130 15SM FEW085 FEW140 16/04 A2996 RMK AC1AC1 AC TR AC TR SLP143 DENSITY ALT 4600FT

Decode

TAF

TAF TAF CYYC 220538Z 2206/2306 05005KT P6SM FEW090 BECMG 2207/2209 31005KT BECMG 2215/2217 07005KT FM221800 11008KT P6SM FEW100 FM222200 12012KT P6SM SCT100 FM230500 15010KT P6SM SKC RMK NXT FCST BY 220900Z

Decode

Departure Runways

ID Width Length Bearing (true) Bearing (mag) Surface Threshold Offset Overrun Length
07 144 ft / 44 m 6,561 ft / 2,000 m 90.76° 76.73° Asphalt 0 ft / 0 m 0 ft / 0 m
10 210 ft / 64 m 8,433 ft / 2,570 m 119.00° 104.97° Asphalt 0 ft / 0 m 0 ft / 0 m
16 200 ft / 61 m 12,703 ft / 3,872 m 179.00° 164.97° Asphalt 0 ft / 0 m 0 ft / 0 m
25 144 ft / 44 m 6,561 ft / 2,000 m 270.78° 256.75° Asphalt 0 ft / 0 m 0 ft / 0 m
28 210 ft / 64 m 8,433 ft / 2,570 m 299.02° 284.99° Asphalt 0 ft / 0 m 121 ft / 37 m
34 200 ft / 61 m 12,703 ft / 3,872 m 359.00° 344.97° Asphalt 0 ft / 0 m 0 ft / 0 m

CYQF

Details ICAO CYQF (YQF)
Name RED DEER REGIONAL
Region Canada
Timezone America/Edmonton (UTC-6.0)
Stats Elevation 2,968 ft / 905 m (AMSL)
Location 52.182568° -113.893686°
Runways 2
Magnetic Variation 14.187° E

METAR

CYQF 220600Z 21004KT 15SM SCT100 12/05 A2993 RMK AC3 SLP143 DENSITY ALT 3300FT

Decode

TAF

TAF CYQF 220538Z 2206/2218 VRB03KT P6SM SKC BECMG 2215/2217 11005KT FM221700 11005KT P6SM SCT050 RMK NXT FCST BY 221200Z

Decode

Destination Runways

ID Width Length Bearing (true) Bearing (mag) Surface Threshold Offset Overrun Length
11 100 ft / 30 m 3,480 ft / 1,061 m 129.84° 115.65° Asphalt 0 ft / 0 m 0 ft / 0 m
16 98 ft / 30 m 5,575 ft / 1,699 m 180.00° 165.81° Asphalt 0 ft / 0 m 0 ft / 0 m
29 100 ft / 30 m 3,480 ft / 1,061 m 309.85° 295.66° Asphalt 0 ft / 0 m 0 ft / 0 m
34 98 ft / 30 m 5,575 ft / 1,699 m 0.00° 345.81° Asphalt 0 ft / 0 m 0 ft / 0 m

Popular Alternatives